createdAt,value
2023-03-26T00:02:18.972Z,9.78
2023-03-26T00:04:46.438Z,9.79
2023-03-26T00:07:15.979Z,9.79
2023-03-26T00:09:44.048Z,9.78
2023-03-26T00:12:11.326Z,9.82
2023-03-26T00:14:40.788Z,9.95
2023-03-26T00:17:08.863Z,9.92
2023-03-26T00:19:36.935Z,9.85
2023-03-26T00:22:04.443Z,9.93
2023-03-26T00:24:33.040Z,9.90
2023-03-26T00:27:01.036Z,9.95
2023-03-26T00:29:28.701Z,9.96
2023-03-26T00:31:55.990Z,9.96
2023-03-26T00:34:24.702Z,9.98
2023-03-26T00:36:54.554Z,9.98
2023-03-26T00:39:23.934Z,9.89
2023-03-26T00:41:54.510Z,9.82
2023-03-26T00:44:22.496Z,9.90
2023-03-26T00:46:49.733Z,9.75
2023-03-26T00:49:17.001Z,9.93
2023-03-26T00:51:44.280Z,10.00
2023-03-26T00:54:11.845Z,9.96
2023-03-26T00:56:39.578Z,9.72
2023-03-26T00:59:09.196Z,9.60
2023-03-26T01:01:36.664Z,9.60
2023-03-26T01:04:28.372Z,9.70
2023-03-26T01:06:56.388Z,9.66
2023-03-26T01:09:27.213Z,9.85
2023-03-26T01:11:54.547Z,9.85
2023-03-26T01:14:24.891Z,9.71
2023-03-26T01:16:53.042Z,9.73
2023-03-26T01:19:24.749Z,9.78
2023-03-26T01:21:52.067Z,9.70
2023-03-26T01:24:20.721Z,9.75
2023-03-26T01:26:53.983Z,9.78
2023-03-26T01:29:23.459Z,9.82
2023-03-26T01:31:56.069Z,9.98
2023-03-26T01:34:30.681Z,9.74
2023-03-26T01:37:02.294Z,9.77
2023-03-26T01:39:33.772Z,9.91
2023-03-26T01:42:03.515Z,9.70
2023-03-26T01:44:35.445Z,9.63
2023-03-26T01:47:02.818Z,9.53
2023-03-26T01:49:30.625Z,9.58
2023-03-26T01:51:58.686Z,9.62
2023-03-26T01:54:28.072Z,9.49
2023-03-26T01:57:02.276Z,9.57
2023-03-26T01:59:38.288Z,9.52
2023-03-26T02:02:10.228Z,9.34
2023-03-26T02:04:42.105Z,9.20
2023-03-26T02:07:12.704Z,9.16
2023-03-26T02:09:45.675Z,9.20
2023-03-26T02:12:15.414Z,9.12
2023-03-26T02:14:43.305Z,9.10
2023-03-26T02:17:10.946Z,9.00
2023-03-26T02:19:41.907Z,9.08
2023-03-26T02:22:11.138Z,9.10
2023-03-26T02:24:38.824Z,9.13
2023-03-26T02:27:07.631Z,9.16
2023-03-26T02:29:37.869Z,9.01
2023-03-26T02:32:05.868Z,9.16
2023-03-26T02:34:33.481Z,9.18
2023-03-26T02:37:00.903Z,9.09
2023-03-26T02:39:28.190Z,9.15
2023-03-26T02:41:55.629Z,9.27
2023-03-26T02:44:22.880Z,9.23
2023-03-26T02:46:51.441Z,9.15
2023-03-26T02:49:18.677Z,9.04
2023-03-26T02:51:45.929Z,9.04
2023-03-26T02:54:13.198Z,8.93
2023-03-26T02:56:40.519Z,9.03
2023-03-26T02:59:09.588Z,8.92
2023-03-26T03:01:36.910Z,9.01
2023-03-26T03:04:05.545Z,9.10
2023-03-26T03:06:32.856Z,9.07
2023-03-26T03:09:02.539Z,9.00
2023-03-26T03:11:29.796Z,8.90
2023-03-26T03:13:57.373Z,9.11
2023-03-26T03:16:24.907Z,8.94
2023-03-26T03:18:57.800Z,9.11
2023-03-26T03:21:27.654Z,9.08
2023-03-26T03:23:55.171Z,9.09
2023-03-26T03:26:27.625Z,9.06
2023-03-26T03:28:55.764Z,8.90
2023-03-26T03:31:24.692Z,8.96
2023-03-26T03:33:52.497Z,9.03
2023-03-26T03:36:21.976Z,8.95
2023-03-26T03:38:51.358Z,9.05
2023-03-26T03:41:19.119Z,9.07
2023-03-26T03:43:46.467Z,8.97
2023-03-26T03:46:13.776Z,9.03
2023-03-26T03:48:43.514Z,8.97
2023-03-26T03:51:10.784Z,9.09
2023-03-26T03:53:40.613Z,9.04
2023-03-26T03:56:10.490Z,8.98
2023-03-26T03:58:37.921Z,8.98
2023-03-26T04:01:05.475Z,8.90
2023-03-26T04:03:38.960Z,8.95
2023-03-26T04:06:07.801Z,8.78
2023-03-26T04:08:35.520Z,8.92
2023-03-26T04:11:02.873Z,8.85
2023-03-26T04:13:31.482Z,8.80
2023-03-26T04:15:59.216Z,8.92
2023-03-26T04:18:27.666Z,8.94
2023-03-26T04:20:55.709Z,8.95
2023-03-26T04:23:23.333Z,8.93
2023-03-26T04:25:55.371Z,8.81
2023-03-26T04:28:28.103Z,8.93
2023-03-26T04:31:00.610Z,9.08
2023-03-26T04:33:28.674Z,9.06
2023-03-26T04:35:56.811Z,9.10
2023-03-26T04:38:24.374Z,9.03
2023-03-26T04:40:51.964Z,8.95
2023-03-26T04:43:19.239Z,9.05
2023-03-26T04:45:47.764Z,9.00
2023-03-26T04:48:16.353Z,9.16
2023-03-26T04:50:43.939Z,9.14
2023-03-26T04:53:13.817Z,9.17
2023-03-26T04:55:44.838Z,9.18
2023-03-26T04:58:13.953Z,9.25
2023-03-26T05:00:41.839Z,9.14
2023-03-26T05:03:11.544Z,9.20
2023-03-26T05:05:40.546Z,9.29
2023-03-26T05:08:07.892Z,9.30
2023-03-26T05:10:35.311Z,9.24
2023-03-26T05:13:02.594Z,9.33
2023-03-26T05:15:29.982Z,9.22
2023-03-26T05:17:57.991Z,9.24
2023-03-26T05:20:26.318Z,9.17
2023-03-26T05:22:55.659Z,9.23
2023-03-26T05:25:23.188Z,9.18
2023-03-26T05:27:50.459Z,9.26
2023-03-26T05:30:18.502Z,9.22
2023-03-26T05:32:47.226Z,9.14
2023-03-26T05:35:16.856Z,9.22
2023-03-26T05:37:45.492Z,9.26
2023-03-26T05:40:16.777Z,9.17
2023-03-26T05:42:44.438Z,9.27
2023-03-26T05:45:13.303Z,9.22
2023-03-26T05:47:40.664Z,9.29
2023-03-26T05:50:08.954Z,9.28
2023-03-26T05:52:36.406Z,9.28
2023-03-26T05:55:03.942Z,9.39
2023-03-26T05:57:32.682Z,9.27
2023-03-26T06:00:00.358Z,9.32
2023-03-26T06:02:29.405Z,9.46
2023-03-26T06:04:56.824Z,9.36
2023-03-26T06:07:24.183Z,9.41
2023-03-26T06:09:52.008Z,9.65
2023-03-26T06:12:19.435Z,9.68
2023-03-26T06:14:48.100Z,9.60
2023-03-26T06:17:15.403Z,9.46
2023-03-26T06:19:42.670Z,9.74
2023-03-26T06:22:09.954Z,9.85
2023-03-26T06:24:37.338Z,9.72
2023-03-26T06:27:04.592Z,9.68
2023-03-26T06:29:31.942Z,9.72
2023-03-26T06:32:12.302Z,9.78
2023-03-26T06:34:46.148Z,9.86
2023-03-26T06:37:13.466Z,9.99
2023-03-26T06:39:40.945Z,10.01
2023-03-26T06:42:08.288Z,10.04
2023-03-26T06:44:35.846Z,10.12
2023-03-26T06:47:04.424Z,10.24
2023-03-26T06:49:31.762Z,10.27
2023-03-26T06:51:59.488Z,10.37
2023-03-26T06:54:27.475Z,10.42
2023-03-26T06:56:54.824Z,10.52
2023-03-26T06:59:22.191Z,10.53
2023-03-26T07:01:49.463Z,10.61
2023-03-26T07:04:18.166Z,10.65
2023-03-26T07:06:45.878Z,10.47
2023-03-26T07:09:13.182Z,10.70
2023-03-26T07:11:40.459Z,10.77
2023-03-26T07:14:07.780Z,10.60
2023-03-26T07:16:35.048Z,10.56
2023-03-26T07:19:02.309Z,10.46
2023-03-26T07:21:31.305Z,10.54
2023-03-26T07:23:58.768Z,10.42
2023-03-26T07:26:27.408Z,10.57
2023-03-26T07:29:04.403Z,10.54
2023-03-26T07:31:35.968Z,10.57
2023-03-26T07:34:08.667Z,10.87
2023-03-26T07:36:45.341Z,10.77
2023-03-26T07:39:20.443Z,10.99
2023-03-26T07:41:50.869Z,11.08
2023-03-26T07:44:27.541Z,11.24
2023-03-26T07:46:55.201Z,11.10
2023-03-26T07:49:22.748Z,10.92
2023-03-26T07:51:51.775Z,11.06
2023-03-26T07:54:19.437Z,11.11
2023-03-26T07:56:49.912Z,11.44
2023-03-26T07:59:21.804Z,11.56
2023-03-26T08:02:01.497Z,11.33
2023-03-26T08:04:39.904Z,11.20
2023-03-26T08:07:11.892Z,11.48
2023-03-26T08:09:43.290Z,11.46
2023-03-26T08:12:18.540Z,11.62
2023-03-26T08:14:54.592Z,11.08
2023-03-26T08:17:25.556Z,11.37
2023-03-26T08:20:02.131Z,11.37
2023-03-26T08:22:34.261Z,11.29
2023-03-26T08:25:11.484Z,11.19
2023-03-26T08:27:40.061Z,11.42
2023-03-26T08:30:09.993Z,11.41
2023-03-26T08:32:37.713Z,11.41
2023-03-26T08:35:05.324Z,11.47
2023-03-26T08:37:33.957Z,11.54
2023-03-26T08:40:01.207Z,11.48
2023-03-26T08:42:46.394Z,11.41
2023-03-26T08:45:26.912Z,11.41
2023-03-26T08:48:12.282Z,11.64
2023-03-26T08:50:49.454Z,11.13
2023-03-26T08:53:29.759Z,10.99
2023-03-26T08:55:58.067Z,11.31
2023-03-26T08:58:58.288Z,11.24
2023-03-26T09:01:34.134Z,11.59
2023-03-26T09:04:19.204Z,11.68
2023-03-26T09:07:16.436Z,11.64
2023-03-26T09:10:02.065Z,11.83
2023-03-26T09:13:01.874Z,11.92
2023-03-26T09:15:38.896Z,12.15
2023-03-26T09:18:20.631Z,12.33
2023-03-26T09:21:00.817Z,12.19
2023-03-26T09:23:46.534Z,12.30
2023-03-26T09:26:27.710Z,11.93
2023-03-26T09:29:12.948Z,12.21
2023-03-26T09:31:57.735Z,11.74
2023-03-26T09:34:28.938Z,11.81
2023-03-26T09:36:57.487Z,12.10
2023-03-26T09:39:36.398Z,12.37
2023-03-26T09:42:09.652Z,12.33
2023-03-26T09:44:45.722Z,12.12
2023-03-26T09:47:25.281Z,12.48
2023-03-26T09:49:54.791Z,12.57
2023-03-26T09:52:27.017Z,13.02
2023-03-26T09:55:12.663Z,13.24
2023-03-26T09:57:53.563Z,13.53
2023-03-26T10:00:25.365Z,13.93
2023-03-26T10:03:09.240Z,13.78
2023-03-26T10:05:41.556Z,13.96
2023-03-26T10:08:20.229Z,13.91
2023-03-26T10:10:53.453Z,14.41
2023-03-26T10:13:26.777Z,14.35
2023-03-26T10:16:03.366Z,14.26
2023-03-26T10:18:38.754Z,14.47
2023-03-26T10:21:08.808Z,14.42
2023-03-26T10:23:43.259Z,14.72
2023-03-26T10:26:21.618Z,14.19
2023-03-26T10:29:04.597Z,13.54
2023-03-26T10:31:37.889Z,13.93
2023-03-26T10:34:10.978Z,14.09
2023-03-26T10:37:01.693Z,13.92
2023-03-26T10:39:45.296Z,13.33
2023-03-26T10:42:20.603Z,13.07
2023-03-26T10:45:00.385Z,13.08
2023-03-26T10:47:35.854Z,13.23
2023-03-26T10:50:23.127Z,13.31
2023-03-26T10:52:55.154Z,13.70
2023-03-26T10:55:25.444Z,14.49
2023-03-26T10:57:54.175Z,14.56
2023-03-26T11:00:25.227Z,14.60
2023-03-26T11:03:03.897Z,15.16
2023-03-26T11:05:41.847Z,15.40
2023-03-26T11:08:13.560Z,14.64
2023-03-26T11:10:49.209Z,14.63
2023-03-26T11:13:21.460Z,14.48
2023-03-26T11:15:53.697Z,14.97
2023-03-26T11:18:24.511Z,15.43
2023-03-26T11:20:57.147Z,15.08
2023-03-26T11:24:05.737Z,15.70
2023-03-26T11:26:39.482Z,15.97
2023-03-26T11:29:31.884Z,16.11
2023-03-26T11:32:03.453Z,16.01
2023-03-26T11:34:34.074Z,16.07
2023-03-26T11:37:02.571Z,16.18
2023-03-26T11:39:30.909Z,15.83
2023-03-26T11:42:04.370Z,15.79
2023-03-26T11:44:34.824Z,15.41
2023-03-26T11:47:05.426Z,15.50
2023-03-26T11:49:33.505Z,15.04
2023-03-26T11:52:01.860Z,14.73
2023-03-26T11:54:29.154Z,14.66
2023-03-26T11:57:05.410Z,14.89
2023-03-26T11:59:45.302Z,15.12
2023-03-26T12:02:28.910Z,15.19
2023-03-26T12:05:09.806Z,15.10
2023-03-26T12:07:37.384Z,14.88
2023-03-26T12:10:18.236Z,14.51
2023-03-26T12:12:46.939Z,14.44
2023-03-26T12:15:14.803Z,14.43
2023-03-26T12:17:43.482Z,14.03
2023-03-26T12:20:31.018Z,13.97
2023-03-26T12:22:59.834Z,14.06
2023-03-26T12:25:28.244Z,14.20
2023-03-26T12:28:02.318Z,14.16
2023-03-26T12:30:30.788Z,14.35
2023-03-26T12:33:03.535Z,14.11
2023-03-26T12:35:32.175Z,14.15
2023-03-26T12:38:14.899Z,14.13
2023-03-26T12:40:43.070Z,14.09
2023-03-26T12:44:47.213Z,13.89
2023-03-26T12:47:56.484Z,13.93
2023-03-26T12:49:12.370Z,13.99
2023-03-26T12:51:48.308Z,13.85
2023-03-26T12:54:24.478Z,13.93
2023-03-26T12:57:11.881Z,13.93
2023-03-26T12:59:48.789Z,13.78
2023-03-26T13:02:25.483Z,13.82
2023-03-26T13:05:09.292Z,13.70
2023-03-26T13:07:45.518Z,13.72
2023-03-26T13:10:31.456Z,14.01
2023-03-26T13:13:06.429Z,13.92
2023-03-26T13:15:36.536Z,13.99
2023-03-26T13:18:11.804Z,14.01
2023-03-26T13:20:49.512Z,13.71
2023-03-26T13:23:24.156Z,13.70
2023-03-26T13:25:55.911Z,13.75
2023-03-26T13:28:30.829Z,13.74
2023-03-26T13:31:03.938Z,13.78
2023-03-26T13:33:35.833Z,13.82
2023-03-26T13:36:22.661Z,13.88
2023-03-26T13:38:59.178Z,14.08
2023-03-26T13:41:34.401Z,14.16
2023-03-26T13:44:06.194Z,14.16
2023-03-26T13:46:37.343Z,14.18
2023-03-26T13:49:09.101Z,14.08
2023-03-26T13:51:41.794Z,13.98
2023-03-26T13:54:16.777Z,13.95
2023-03-26T13:56:47.745Z,13.53
2023-03-26T13:59:17.729Z,13.61
2023-03-26T14:01:51.151Z,13.31
2023-03-26T14:04:22.335Z,13.29
2023-03-26T14:06:57.078Z,12.86
2023-03-26T14:09:27.714Z,12.78
2023-03-26T14:12:05.282Z,12.23
2023-03-26T14:14:35.589Z,12.20
2023-03-26T14:17:06.399Z,12.40
2023-03-26T14:19:54.567Z,12.08
2023-03-26T14:22:28.506Z,11.84
2023-03-26T14:25:03.159Z,12.00
2023-03-26T14:27:44.080Z,11.88
2023-03-26T14:30:40.480Z,11.88
2023-03-26T14:33:27.433Z,11.73
2023-03-26T14:35:59.154Z,11.50
2023-03-26T14:38:35.494Z,11.48
2023-03-26T14:41:06.968Z,11.54
2023-03-26T14:43:56.406Z,11.75
2023-03-26T14:46:44.337Z,11.27
2023-03-26T14:49:26.409Z,11.33
2023-03-26T14:51:59.916Z,11.17
2023-03-26T14:54:30.297Z,11.36
2023-03-26T14:57:21.444Z,11.32
2023-03-26T14:59:59.254Z,11.29
2023-03-26T15:02:44.202Z,11.44
2023-03-26T15:05:40.797Z,11.54
2023-03-26T15:08:41.054Z,11.53
2023-03-26T15:11:19.278Z,11.15
2023-03-26T15:13:54.666Z,11.08
2023-03-26T15:16:30.428Z,11.06
2023-03-26T15:19:23.152Z,11.14
2023-03-26T15:22:05.959Z,11.18
2023-03-26T15:24:51.028Z,11.36
2023-03-26T15:27:28.621Z,11.25
2023-03-26T15:30:13.570Z,11.03
2023-03-26T15:32:49.544Z,10.81
2023-03-26T15:35:38.412Z,10.91
2023-03-26T15:38:23.179Z,10.73
2023-03-26T15:41:20.421Z,10.68
2023-03-26T15:44:23.364Z,10.49
2023-03-26T15:46:56.692Z,10.57
2023-03-26T15:49:30.873Z,10.55
2023-03-26T15:52:00.676Z,10.46
2023-03-26T15:54:30.301Z,10.54
2023-03-26T15:57:03.768Z,10.24
2023-03-26T15:59:37.802Z,9.97
2023-03-26T16:02:16.032Z,9.68
2023-03-26T16:04:50.370Z,9.60
2023-03-26T16:07:44.229Z,9.41
2023-03-26T16:10:17.099Z,9.78
2023-03-26T16:12:48.226Z,9.67
2023-03-26T16:15:30.707Z,9.56
2023-03-26T16:18:22.317Z,9.48
2023-03-26T16:20:54.005Z,9.04
2023-03-26T16:23:27.229Z,9.02
2023-03-26T16:25:55.158Z,8.96
2023-03-26T16:28:28.437Z,9.19
2023-03-26T16:31:39.276Z,9.45
2023-03-26T16:34:22.286Z,9.55
2023-03-26T16:36:51.410Z,9.62
2023-03-26T16:39:25.423Z,9.80
2023-03-26T16:42:06.418Z,9.82
2023-03-26T16:44:38.948Z,9.69
2023-03-26T16:47:11.058Z,9.69
2023-03-26T16:50:07.409Z,9.70
2023-03-26T16:52:42.954Z,9.70
2023-03-26T16:55:17.125Z,9.60
2023-03-26T16:57:46.668Z,9.47
2023-03-26T17:00:48.003Z,9.27
2023-03-26T17:03:35.573Z,9.67
2023-03-26T17:06:15.424Z,9.74
2023-03-26T17:08:48.253Z,9.62
2023-03-26T17:11:21.818Z,9.73
2023-03-26T17:13:52.310Z,9.80
2023-03-26T17:16:23.054Z,9.89
2023-03-26T17:18:56.432Z,9.78
2023-03-26T17:21:28.877Z,9.91
2023-03-26T17:24:18.997Z,9.94
2023-03-26T17:26:53.805Z,9.82
2023-03-26T17:29:27.188Z,9.71
2023-03-26T17:32:00.257Z,9.76
2023-03-26T17:34:48.618Z,9.86
2023-03-26T17:37:30.805Z,9.86
2023-03-26T17:40:16.714Z,9.87
2023-03-26T17:42:58.949Z,9.82
2023-03-26T17:47:59.163Z,9.86
2023-03-26T17:50:29.833Z,9.89
2023-03-26T17:52:58.404Z,9.82
2023-03-26T17:55:31.756Z,9.96
2023-03-26T17:58:00.344Z,9.88
2023-03-26T18:00:31.098Z,9.93
2023-03-26T18:03:01.278Z,9.94
2023-03-26T18:05:30.450Z,9.70
2023-03-26T18:08:26.418Z,9.70
2023-03-26T18:11:09.128Z,9.92
2023-03-26T18:13:49.906Z,9.91
2023-03-26T18:16:20.824Z,9.88
2023-03-26T18:18:50.668Z,9.82
2023-03-26T18:21:21.425Z,9.63
2023-03-26T18:23:50.592Z,9.51
2023-03-26T18:26:20.066Z,9.66
2023-03-26T18:28:50.861Z,9.70
2023-03-26T18:31:21.561Z,9.56
2023-03-26T18:33:49.645Z,9.50
2023-03-26T18:36:18.499Z,9.65
2023-03-26T18:38:46.565Z,9.80
2023-03-26T18:41:18.078Z,9.80
2023-03-26T18:43:45.585Z,9.71
2023-03-26T18:46:13.664Z,9.54
2023-03-26T18:48:42.737Z,9.52
2023-03-26T18:51:11.142Z,9.61
2023-03-26T18:53:39.434Z,9.67
2023-03-26T18:56:19.088Z,9.62
2023-03-26T18:58:50.810Z,9.64
2023-03-26T19:01:25.433Z,9.40
2023-03-26T19:03:55.244Z,9.31
2023-03-26T19:06:23.871Z,9.38
2023-03-26T19:08:52.289Z,9.49
2023-03-26T19:11:20.137Z,9.43
2023-03-26T19:13:51.424Z,9.42
2023-03-26T19:16:22.116Z,9.29
2023-03-26T19:18:49.934Z,9.40
2023-03-26T19:21:20.057Z,9.52
2023-03-26T19:23:48.317Z,9.61
2023-03-26T19:26:16.596Z,9.59
2023-03-26T19:28:48.959Z,9.56
2023-03-26T19:31:21.938Z,9.42
2023-03-26T19:33:55.951Z,9.38
2023-03-26T19:36:28.162Z,9.36
2023-03-26T19:39:04.377Z,9.45
2023-03-26T19:41:33.004Z,9.43
2023-03-26T19:44:01.258Z,9.45
2023-03-26T19:46:29.755Z,9.38
2023-03-26T19:48:57.935Z,9.39
2023-03-26T19:51:32.074Z,9.50
2023-03-26T19:54:00.754Z,9.47
2023-03-26T19:56:28.781Z,9.51
2023-03-26T19:58:57.022Z,9.54
2023-03-26T20:01:25.491Z,9.49
2023-03-26T20:03:55.005Z,9.36
2023-03-26T20:06:30.696Z,9.32
2023-03-26T20:09:04.097Z,9.55
2023-03-26T20:11:33.510Z,9.33
2023-03-26T20:14:01.640Z,9.44
2023-03-26T20:16:29.679Z,9.35
2023-03-26T20:18:57.296Z,9.27
2023-03-26T20:21:25.208Z,9.30
2023-03-26T20:23:53.490Z,9.10
2023-03-26T20:26:22.978Z,8.85
2023-03-26T20:28:53.452Z,9.02
2023-03-26T20:31:22.786Z,9.14
2023-03-26T20:33:50.659Z,9.03
2023-03-26T20:36:32.999Z,9.17
2023-03-26T20:39:02.434Z,8.92
2023-03-26T20:41:31.609Z,8.93
2023-03-26T20:43:58.891Z,9.00
2023-03-26T21:01:00.383Z,8.88
2023-03-26T21:03:27.811Z,8.83
2023-03-26T21:05:55.150Z,8.85
2023-03-26T21:08:29.925Z,8.85
2023-03-26T21:10:58.673Z,8.92
2023-03-26T21:13:30.712Z,8.87
2023-03-26T21:16:00.882Z,8.86
2023-03-26T21:18:58.719Z,8.75
2023-03-26T21:21:57.921Z,8.88
2023-03-26T22:17:14.093Z,8.76
2023-03-26T22:19:48.194Z,8.79
2023-03-26T22:22:42.530Z,8.87
2023-03-26T22:29:34.257Z,8.82
